Time;durP1;ratioP1;P1;durP2;ratioP2;P2;SDS_P1;SDS_P2;PMS_P1;PMS_P2;Temp;Humidity;BMP_temperature;BMP_pressure;BME280_temperature;BME280_humidity;BME280_pressure;Samples;Min_cycle;Max_cycle;Signal;HPM_P1;HPM_P2
2023/01/22 07:51:07;;;;;;;14.83;8.50;;;1.90;99.90;;;;;;6177874;23;20241;-95
2023/01/22 07:53:34;;;;;;;15.00;8.20;;;1.90;99.90;;;;;;6187636;23;20197;-94
2023/01/22 07:56:01;;;;;;;13.70;7.77;;;1.90;99.90;;;;;;6188356;23;20228;-92
2023/01/22 07:58:28;;;;;;;18.03;8.73;;;1.90;99.90;;;;;;6187324;23;20171;-93
2023/01/22 08:00:55;;;;;;;18.93;9.00;;;1.90;99.90;;;;;;6188156;23;20171;-93
2023/01/22 08:03:22;;;;;;;18.97;9.97;;;1.90;99.90;;;;;;6187911;23;20175;-93
2023/01/22 08:05:49;;;;;;;19.00;9.37;;;1.90;99.90;;;;;;6188039;23;20175;-93
2023/01/22 08:08:20;;;;;;;20.00;10.00;;;1.90;99.90;;;;;;6187764;23;20194;-93
2023/01/22 08:10:47;;;;;;;18.07;9.20;;;2.00;99.90;;;;;;6187543;23;20191;-92
2023/01/22 08:13:14;;;;;;;19.97;9.37;;;2.00;96.70;;;;;;6187768;23;20167;-94
2023/01/22 08:15:42;;;;;;;21.77;9.57;;;2.00;89.90;;;;;;6187427;23;20165;-94
2023/01/22 08:18:10;;;;;;;18.30;9.40;;;2.00;75.00;;;;;;6187768;23;20629;-94
2023/01/22 08:20:37;;;;;;;20.00;9.03;;;2.00;56.60;;;;;;6188476;23;20180;-94
2023/01/22 08:23:04;;;;;;;20.23;10.23;;;2.00;44.50;;;;;;6187670;23;20554;-95
2023/01/22 08:25:34;;;;;;;20.30;9.87;;;2.10;11.60;;;;;;6188289;23;20175;-94
2023/01/22 08:28:03;;;;;;;19.03;8.87;;;2.10;1.00;;;;;;6187930;23;20195;-94
2023/01/22 08:30:30;;;;;;;18.23;9.37;;;2.10;1.00;;;;;;6188160;23;20542;-94
2023/01/22 08:32:57;;;;;;;20.23;9.63;;;2.10;1.00;;;;;;6187194;23;20172;-94
2023/01/22 08:35:24;;;;;;;21.27;10.37;;;2.10;1.00;;;;;;6187598;23;20168;-93
2023/01/22 08:37:51;;;;;;;19.13;9.73;;;2.10;1.00;;;;;;6187652;23;20223;-93
2023/01/22 08:40:18;;;;;;;22.37;9.80;;;2.10;1.00;;;;;;6187629;23;20167;-93
2023/01/22 08:42:52;;;;;;;20.03;10.27;;;2.10;1.00;;;;;;6186966;23;20637;-94
2023/01/22 08:45:19;;;;;;;18.23;9.80;;;2.10;1.00;;;;;;6187476;23;20165;-94
2023/01/22 08:47:46;;;;;;;21.07;10.87;;;2.10;1.00;;;;;;6187524;23;20196;-93
2023/01/22 08:50:13;;;;;;;18.63;9.57;;;2.20;1.00;;;;;;6187437;23;20200;-93
2023/01/22 08:52:40;;;;;;;19.93;10.03;;;2.10;1.00;;;;;;6187906;23;20656;-94
2023/01/22 08:55:08;;;;;;;20.73;10.83;;;2.10;1.00;;;;;;6186757;23;20699;-94
2023/01/22 08:57:36;;;;;;;24.23;10.80;;;2.20;1.00;;;;;;6187392;23;20171;-93
2023/01/22 09:00:05;;;;;;;18.30;9.80;;;2.20;1.00;;;;;;6187344;23;20179;-93
2023/01/22 09:02:32;;;;;;;22.27;11.33;;;2.20;1.00;;;;;;6187254;23;20182;-93
2023/01/22 09:04:59;;;;;;;22.67;10.30;;;2.20;1.00;;;;;;6187872;23;20549;-94
2023/01/22 09:07:26;;;;;;;23.60;10.83;;;2.20;1.00;;;;;;6187254;23;20175;-93
2023/01/22 09:09:53;;;;;;;23.87;11.87;;;2.20;1.00;;;;;;6187028;23;20275;-95
2023/01/22 09:12:20;;;;;;;19.23;10.17;;;2.30;1.00;;;;;;6187432;23;20173;-92
2023/01/22 09:14:47;;;;;;;21.70;10.27;;;2.30;1.00;;;;;;6187196;23;20234;-94
2023/01/22 09:17:15;;;;;;;26.70;11.50;;;2.30;1.00;;;;;;6186411;23;20228;-93
2023/01/22 09:19:42;;;;;;;27.47;11.20;;;2.30;1.00;;;;;;6187051;23;20642;-94
2023/01/22 09:22:09;;;;;;;19.67;10.93;;;2.30;1.00;;;;;;6186848;23;20168;-94
2023/01/22 09:24:36;;;;;;;24.70;11.70;;;2.30;1.00;;;;;;6186990;23;20175;-93
2023/01/22 09:27:03;;;;;;;24.53;11.93;;;2.30;1.00;;;;;;6187519;23;20172;-94
2023/01/22 09:29:30;;;;;;;22.37;11.07;;;2.40;1.00;;;;;;6187000;23;20197;-93
2023/01/22 09:31:57;;;;;;;24.00;10.80;;;2.40;1.00;;;;;;6186932;23;20276;-93
2023/01/22 09:34:26;;;;;;;24.87;11.87;;;2.40;1.00;;;;;;6187047;23;20234;-91
2023/01/22 09:36:52;;;;;;;23.87;10.80;;;2.40;1.00;;;;;;6187069;23;20234;-91
2023/01/22 09:39:19;;;;;;;24.67;11.17;;;2.50;1.00;;;;;;6186459;23;20173;-90
2023/01/22 09:41:49;;;;;;;21.63;9.90;;;2.50;1.00;;;;;;6186808;23;20228;-93
2023/01/22 09:44:20;;;;;;;18.70;10.10;;;2.50;1.00;;;;;;6186403;23;20171;-93
2023/01/22 09:46:52;;;;;;;21.03;11.07;;;2.50;1.00;;;;;;6187589;23;20259;-93
2023/01/22 09:49:23;;;;;;;23.60;11.20;;;2.40;1.00;;;;;;6186559;23;20227;-92
2023/01/22 09:51:54;;;;;;;24.43;12.33;;;2.50;1.00;;;;;;6186973;23;20160;-94
2023/01/22 09:54:22;;;;;;;23.47;12.00;;;2.50;1.00;;;;;;6186725;23;20219;-93
2023/01/22 09:56:51;;;;;;;23.60;11.80;;;2.50;1.00;;;;;;6188646;23;20176;-93
2023/01/22 09:59:22;;;;;;;22.73;10.50;;;2.50;1.00;;;;;;6190030;23;20216;-95
2023/01/22 10:01:52;;;;;;;21.30;11.27;;;2.50;1.00;;;;;;6200399;23;20165;-93
2023/01/22 10:04:33;;;;;;;20.07;10.47;;;2.60;1.00;;;;;;6187024;23;20171;-93
2023/01/22 10:07:03;;;;;;;23.73;10.17;;;2.50;99.90;;;;;;6186210;23;20200;-90
2023/01/22 10:09:32;;;;;;;23.27;11.23;;;2.60;99.90;;;;;;6186355;23;20184;-91
2023/01/22 10:12:01;;;;;;;22.77;11.37;;;2.60;1.00;;;;;;6186576;23;20176;-92
2023/01/22 10:14:30;;;;;;;23.37;11.10;;;2.60;1.00;;;;;;6186307;23;20175;-91
2023/01/22 10:17:00;;;;;;;22.73;11.60;;;2.70;99.90;;;;;;6185944;23;20632;-92
2023/01/22 10:19:30;;;;;;;23.67;11.40;;;2.70;99.90;;;;;;6186130;23;20156;-91
2023/01/22 10:22:04;;;;;;;24.60;11.77;;;2.70;99.90;;;;;;6185792;23;20673;-89
2023/01/22 10:24:31;;;;;;;23.03;11.60;;;2.70;99.90;;;;;;6186195;23;20165;-88
2023/01/22 10:27:11;;;;;;;26.87;13.40;;;2.70;99.90;;;;;;6185661;23;20176;-91
2023/01/22 10:29:38;;;;;;;20.27;10.80;;;2.70;99.90;;;;;;6185515;23;20230;-90
2023/01/22 10:32:17;;;;;;;26.47;11.83;;;2.70;99.90;;;;;;6186047;23;20210;-90
2023/01/22 10:34:57;;;;;;;23.83;12.03;;;2.70;99.90;;;;;;6186309;23;20165;-91
2023/01/22 10:37:25;;;;;;;23.47;13.37;;;2.70;99.90;;;;;;6186174;23;20207;-91
2023/01/22 10:39:57;;;;;;;22.97;10.70;;;2.70;99.90;;;;;;6187532;23;20224;-90
2023/01/22 10:42:26;;;;;;;24.27;11.23;;;2.70;99.90;;;;;;6188356;23;20160;-92
2023/01/22 10:44:56;;;;;;;24.10;11.93;;;2.70;99.90;;;;;;6188115;23;20176;-92
2023/01/22 10:47:26;;;;;;;22.43;11.33;;;2.60;99.90;;;;;;6188513;23;20171;-92
2023/01/22 10:50:02;;;;;;;21.60;11.10;;;2.60;99.90;;;;;;6188317;23;20198;-90
2023/01/22 10:52:36;;;;;;;26.90;12.27;;;2.60;99.90;;;;;;6187806;23;20218;-91
2023/01/22 10:55:04;;;;;;;24.60;11.43;;;2.50;99.90;;;;;;6188078;23;20534;-92
2023/01/22 10:57:33;;;;;;;22.37;11.40;;;2.50;99.90;;;;;;6186693;23;20627;-92
2023/01/22 11:00:07;;;;;;;22.87;12.10;;;2.50;99.90;;;;;;6186184;23;20228;-91
2023/01/22 11:02:35;;;;;;;23.00;12.23;;;2.50;99.90;;;;;;6186818;23;20161;-91
2023/01/22 11:05:17;;;;;;;21.30;10.57;;;2.50;99.90;;;;;;6186677;23;20624;-92
2023/01/22 11:07:46;;;;;;;23.27;10.73;;;2.40;99.90;;;;;;6187083;23;20162;-92
2023/01/22 11:10:19;;;;;;;19.80;10.43;;;2.50;99.90;;;;;;6187076;23;20622;-91
2023/01/22 11:12:50;;;;;;;21.67;11.77;;;2.50;1.00;;;;;;6186843;23;20631;-91
2023/01/22 11:15:21;;;;;;;24.43;11.87;;;2.50;1.00;;;;;;6186668;23;20184;-91
2023/01/22 11:17:51;;;;;;;23.73;12.43;;;2.50;1.00;;;;;;6186815;23;20158;-92
2023/01/22 11:20:23;;;;;;;23.53;11.20;;;2.60;1.00;;;;;;6186666;23;20631;-89
2023/01/22 11:23:01;;;;;;;22.33;11.90;;;2.60;1.00;;;;;;6186507;23;20212;-91
2023/01/22 11:25:51;;;;;;;21.83;10.90;;;2.60;1.00;;;;;;6187025;23;20212;-91
2023/01/22 11:28:32;;;;;;;21.63;11.23;;;2.60;1.00;;;;;;6187421;23;20158;-91
2023/01/22 11:31:21;;;;;;;21.27;11.70;;;2.60;99.90;;;;;;6188051;23;20159;-91
2023/01/22 11:34:17;;;;;;;22.03;10.57;;;2.60;99.90;;;;;;6187192;23;20161;-91
2023/01/22 11:36:50;;;;;;;21.67;11.40;;;2.60;99.90;;;;;;6187277;23;20161;-90
2023/01/22 11:39:35;;;;;;;21.37;10.53;;;2.60;99.90;;;;;;6187755;23;20160;-91
2023/01/22 11:42:11;;;;;;;22.60;12.10;;;2.60;99.90;;;;;;6184945;23;20250;-93
2023/01/22 11:44:57;;;;;;;24.20;12.20;;;2.60;99.90;;;;;;6186490;23;20148;-92
2023/01/22 11:47:49;;;;;;;20.33;10.40;;;2.50;1.00;;;;;;6186836;23;20179;-94
2023/01/22 11:50:26;;;;;;;23.30;11.43;;;2.50;1.00;;;;;;6186485;23;20240;-92
2023/01/22 11:53:01;;;;;;;19.37;10.33;;;2.60;1.00;;;;;;6187660;23;20160;-94
2023/01/22 11:56:00;;;;;;;21.20;11.73;;;2.50;1.00;;;;;;6186636;23;20223;-91
2023/01/22 11:58:37;;;;;;;24.97;12.53;;;2.50;1.00;;;;;;6186295;23;20218;-94
2023/01/22 12:01:14;;;;;;;23.17;11.13;;;2.50;1.00;;;;;;6184721;23;20180;-93
2023/01/22 12:04:17;;;;;;;22.93;11.10;;;2.50;1.00;;;;;;6185717;23;20163;-93
2023/01/22 12:07:10;;;;;;;26.57;12.17;;;2.50;1.00;;;;;;6184692;23;20219;-94
2023/01/22 12:09:47;;;;;;;25.80;12.57;;;2.60;1.00;;;;;;6184555;23;20187;-93
2023/01/22 12:12:30;;;;;;;22.60;11.43;;;2.60;1.00;;;;;;6185451;23;20156;-93
2023/01/22 12:15:33;;;;;;;22.87;12.07;;;2.60;1.00;;;;;;6185857;23;20169;-93
2023/01/22 12:18:22;;;;;;;22.77;11.00;;;2.60;1.00;;;;;;6065897;23;20231;-93
2023/01/22 12:21:07;;;;;;;18.73;9.57;;;2.60;1.00;;;;;;6065275;23;20183;-92
2023/01/22 12:23:39;;;;;;;24.87;10.87;;;2.50;1.00;;;;;;6066842;23;20163;-95
2023/01/22 12:26:11;;;;;;;22.43;11.27;;;2.50;1.00;;;;;;6067204;23;20161;-95
2023/01/22 12:28:46;;;;;;;23.70;11.37;;;2.50;1.00;;;;;;6066767;23;20178;-94
2023/01/22 12:31:19;;;;;;;25.73;13.13;;;2.40;1.00;;;;;;6066591;23;20162;-93
2023/01/22 12:33:46;;;;;;;23.93;12.10;;;2.40;1.00;;;;;;6066612;23;20565;-93
2023/01/22 12:36:17;;;;;;;24.30;12.73;;;2.50;1.00;;;;;;6066588;23;20180;-93
2023/01/22 12:38:52;;;;;;;27.77;12.77;;;2.40;1.00;;;;;;6066176;23;20164;-93
2023/01/22 12:41:32;;;;;;;26.30;12.37;;;2.40;1.00;;;;;;6066831;23;20171;-94
2023/01/22 12:44:03;;;;;;;22.73;11.10;;;2.40;1.00;;;;;;6066950;23;20171;-94
2023/01/22 12:46:41;;;;;;;24.30;12.00;;;2.40;1.00;;;;;;6066621;23;20179;-94
2023/01/22 12:49:10;;;;;;;22.63;11.00;;;2.40;1.00;;;;;;6066171;23;20229;-92
2023/01/22 12:51:39;;;;;;;21.40;11.77;;;2.40;1.00;;;;;;6065998;23;20247;-94
2023/01/22 12:54:18;;;;;;;23.23;11.97;;;2.40;1.00;;;;;;6141367;23;20181;-93
2023/01/22 12:56:46;;;;;;;26.83;12.07;;;2.40;1.00;;;;;;6185582;23;20154;-93
2023/01/22 12:59:42;;;;;;;22.43;12.03;;;2.40;5.40;;;;;;6186675;23;20165;-94
2023/01/22 13:02:37;;;;;;;22.97;12.10;;;2.40;21.70;;;;;;6185856;23;20221;-93
2023/01/22 13:05:17;;;;;;;25.47;12.60;;;2.40;41.50;;;;;;6185843;23;20202;-93
2023/01/22 13:07:44;;;;;;;25.93;12.97;;;2.40;31.60;;;;;;6186413;23;20211;-93
2023/01/22 13:10:29;;;;;;;26.83;12.07;;;2.50;53.10;;;;;;6186910;23;20204;-93
2023/01/22 13:12:58;;;;;;;21.37;11.43;;;2.50;24.20;;;;;;6186911;23;20243;-93
2023/01/22 13:15:28;;;;;;;24.50;12.20;;;2.40;1.00;;;;;;6187054;23;20174;-93
2023/01/22 13:17:59;;;;;;;23.17;11.60;;;2.40;1.00;;;;;;6187160;23;20156;-94
2023/01/22 13:20:27;;;;;;;22.70;11.90;;;2.40;1.00;;;;;;6186531;23;20160;-94
2023/01/22 13:22:57;;;;;;;26.20;13.20;;;2.40;1.00;;;;;;6185703;23;20233;-94
2023/01/22 13:25:26;;;;;;;22.33;11.10;;;2.30;1.00;;;;;;6186246;23;20509;-93
2023/01/22 13:27:54;;;;;;;25.73;12.53;;;2.40;29.20;;;;;;6186068;23;20234;-93
2023/01/22 13:30:25;;;;;;;29.73;13.50;;;2.40;28.30;;;;;;6185494;23;20192;-94
2023/01/22 13:33:04;;;;;;;26.73;13.13;;;2.30;50.50;;;;;;6185384;23;20248;-94
2023/01/22 13:35:31;;;;;;;32.07;14.67;;;2.30;48.80;;;;;;6185756;23;20218;-92
2023/01/22 13:37:58;;;;;;;22.27;11.43;;;2.30;71.30;;;;;;6185228;23;20172;-94
2023/01/22 13:40:27;;;;;;;22.77;11.43;;;2.40;59.00;;;;;;6185735;23;20230;-92
2023/01/22 13:42:56;;;;;;;22.40;10.77;;;2.30;24.50;;;;;;6185139;23;20639;-93
2023/01/22 13:45:26;;;;;;;21.17;10.53;;;2.40;61.70;;;;;;6185638;23;20253;-93
2023/01/22 13:47:56;;;;;;;21.57;10.53;;;2.30;99.90;;;;;;6185650;23;20171;-94
2023/01/22 13:50:26;;;;;;;25.70;11.97;;;2.40;99.90;;;;;;6185770;23;20725;-93
2023/01/22 13:52:54;;;;;;;22.53;11.63;;;2.40;99.90;;;;;;6187153;23;20163;-94
2023/01/22 13:55:23;;;;;;;26.20;12.93;;;2.40;99.90;;;;;;6187117;23;20176;-94
2023/01/22 13:57:51;;;;;;;26.23;12.67;;;2.40;99.90;;;;;;6186556;23;20175;-93
2023/01/22 14:00:28;;;;;;;20.93;11.57;;;2.50;99.90;;;;;;6186401;23;20176;-94
2023/01/22 14:02:55;;;;;;;25.03;12.27;;;2.50;99.90;;;;;;6186911;23;20218;-93
2023/01/22 14:05:25;;;;;;;27.07;13.40;;;2.50;99.90;;;;;;6186156;23;20218;-94
2023/01/22 14:08:04;;;;;;;23.67;12.47;;;2.50;99.90;;;;;;6186875;23;20534;-92
2023/01/22 14:10:31;;;;;;;29.20;13.27;;;2.40;99.90;;;;;;6186326;23;20204;-93
2023/01/22 14:13:03;;;;;;;26.43;13.77;;;2.40;99.90;;;;;;6186927;23;20176;-92
2023/01/22 14:15:31;;;;;;;29.90;13.70;;;2.40;99.90;;;;;;6188703;23;20175;-93
2023/01/22 14:18:07;;;;;;;27.93;11.90;;;2.40;99.90;;;;;;6188603;23;20177;-93
2023/01/22 14:20:38;;;;;;;28.43;14.13;;;2.30;99.90;;;;;;6188912;23;20159;-93
2023/01/22 14:23:06;;;;;;;29.83;13.00;;;2.30;99.90;;;;;;6188421;23;20563;-93
2023/01/22 14:25:33;;;;;;;26.37;12.40;;;2.20;99.90;;;;;;6188306;23;20172;-94
2023/01/22 14:28:00;;;;;;;25.80;12.03;;;2.30;99.90;;;;;;6188000;23;20177;-94
2023/01/22 14:30:27;;;;;;;25.40;11.83;;;2.30;99.90;;;;;;6188017;23;20191;-95
2023/01/22 14:32:54;;;;;;;26.13;12.17;;;2.20;99.90;;;;;;6188313;23;20233;-94
2023/01/22 14:35:23;;;;;;;27.80;12.90;;;2.20;99.90;;;;;;6188147;23;20173;-93
2023/01/22 14:37:52;;;;;;;24.77;12.63;;;2.20;99.90;;;;;;6187840;23;20176;-93
2023/01/22 14:40:20;;;;;;;27.07;12.80;;;2.20;99.90;;;;;;6188222;23;20171;-95
2023/01/22 14:42:48;;;;;;;26.50;13.67;;;2.20;99.90;;;;;;6186569;23;20634;-92
2023/01/22 14:45:16;;;;;;;26.77;12.40;;;2.20;99.90;;;;;;6187678;23;20235;-93
2023/01/22 14:47:43;;;;;;;29.00;13.57;;;2.20;99.90;;;;;;6187140;23;20176;-91
2023/01/22 14:50:11;;;;;;;31.17;13.93;;;2.20;99.90;;;;;;6186330;23;20669;-94
2023/01/22 14:52:39;;;;;;;24.60;12.90;;;2.20;99.90;;;;;;6187408;23;20228;-93
2023/01/22 14:55:08;;;;;;;25.47;12.47;;;2.10;99.90;;;;;;6187142;23;20181;-94
2023/01/22 14:57:35;;;;;;;25.77;13.10;;;2.10;99.90;;;;;;6187638;23;20223;-91
2023/01/22 15:00:04;;;;;;;28.93;13.47;;;2.10;99.90;;;;;;6185893;23;20222;-92
2023/01/22 15:02:31;;;;;;;27.97;12.67;;;2.10;99.90;;;;;;6186798;23;20172;-93
2023/01/22 15:04:58;;;;;;;25.17;12.40;;;2.10;99.90;;;;;;6186851;23;20166;-93
2023/01/22 15:07:25;;;;;;;26.93;12.47;;;2.10;99.90;;;;;;6187156;23;20183;-94
2023/01/22 15:09:52;;;;;;;26.30;12.37;;;2.10;99.90;;;;;;6187711;23;20195;-96
2023/01/22 15:12:20;;;;;;;27.70;12.67;;;2.10;99.90;;;;;;6185462;23;20161;-92
2023/01/22 15:14:47;;;;;;;25.27;12.33;;;2.10;99.90;;;;;;6186189;23;20235;-94
2023/01/22 15:17:14;;;;;;;23.97;11.13;;;2.10;99.90;;;;;;6185290;23;20176;-92
2023/01/22 15:19:41;;;;;;;22.57;11.03;;;2.10;99.90;;;;;;6187323;23;20225;-93
2023/01/22 15:22:08;;;;;;;20.83;11.43;;;2.10;99.90;;;;;;6186692;23;20174;-94
2023/01/22 15:24:38;;;;;;;25.37;12.70;;;2.10;99.90;;;;;;6186343;23;20179;-90
2023/01/22 15:27:05;;;;;;;20.97;10.27;;;2.10;99.90;;;;;;6187995;23;20171;-92
2023/01/22 15:29:33;;;;;;;23.57;12.57;;;2.10;99.90;;;;;;6186234;23;20233;-94
2023/01/22 15:32:00;;;;;;;22.00;10.27;;;2.10;99.90;;;;;;6187145;23;20630;-91
2023/01/22 15:34:27;;;;;;;21.70;11.20;;;2.10;99.90;;;;;;6186297;23;20244;-95
2023/01/22 15:36:54;;;;;;;25.47;11.33;;;2.10;99.90;;;;;;6187800;23;20175;-95
2023/01/22 15:39:21;;;;;;;21.03;11.10;;;2.10;99.90;;;;;;6188075;23;20172;-95
2023/01/22 15:41:48;;;;;;;19.60;9.73;;;2.00;99.90;;;;;;6187952;23;20202;-94
2023/01/22 15:44:15;;;;;;;19.93;10.80;;;2.10;99.90;;;;;;6186986;23;20649;-94
2023/01/22 15:46:43;;;;;;;21.90;11.20;;;2.10;99.90;;;;;;6187727;23;20164;-94
2023/01/22 15:49:12;;;;;;;23.97;11.13;;;2.10;99.90;;;;;;6188048;23;20191;-92
2023/01/22 15:51:40;;;;;;;20.30;10.73;;;2.10;99.90;;;;;;6186130;23;20200;-95
2023/01/22 15:54:08;;;;;;;25.10;11.17;;;2.10;99.90;;;;;;6188298;23;20610;-94
2023/01/22 15:56:36;;;;;;;22.90;10.93;;;2.10;99.90;;;;;;6186346;23;20200;-90
2023/01/22 15:59:04;;;;;;;23.13;11.10;;;2.10;99.90;;;;;;6185645;23;20169;-90
2023/01/22 16:01:31;;;;;;;23.27;11.33;;;2.10;99.90;;;;;;6185899;23;20171;-91
2023/01/22 16:04:01;;;;;;;20.57;10.77;;;2.10;99.90;;;;;;6185185;23;20175;-91
2023/01/22 16:06:30;;;;;;;18.40;11.40;;;2.10;99.90;;;;;;6186694;23;20170;-95
2023/01/22 16:08:59;;;;;;;18.87;10.10;;;2.10;99.90;;;;;;6185898;23;20182;-92
2023/01/22 16:11:27;;;;;;;24.10;11.20;;;2.10;99.90;;;;;;6186304;23;20188;-92
2023/01/22 16:13:55;;;;;;;23.47;11.20;;;2.10;99.90;;;;;;6185753;23;20172;-93
2023/01/22 16:16:24;;;;;;;19.93;10.70;;;2.10;99.90;;;;;;6184232;23;20203;-91
2023/01/22 16:18:52;;;;;;;21.47;10.67;;;2.10;99.90;;;;;;6185338;23;20187;-93
2023/01/22 16:21:21;;;;;;;23.20;10.93;;;2.10;99.90;;;;;;6185472;23;20226;-91
2023/01/22 16:23:52;;;;;;;20.90;10.47;;;2.10;99.90;;;;;;6185700;23;20173;-92
2023/01/22 16:26:22;;;;;;;19.23;10.23;;;2.10;99.90;;;;;;6185918;23;20156;-91
2023/01/22 16:28:50;;;;;;;22.17;10.60;;;2.10;99.90;;;;;;6186009;23;20161;-91
2023/01/22 16:31:19;;;;;;;20.33;11.03;;;2.10;99.90;;;;;;6185214;23;20761;-92
2023/01/22 16:33:49;;;;;;;21.10;11.33;;;2.10;99.90;;;;;;6186331;23;20208;-92
2023/01/22 16:36:18;;;;;;;23.20;11.47;;;2.10;99.90;;;;;;6186152;23;20180;-92
2023/01/22 16:38:48;;;;;;;19.90;10.90;;;2.10;99.90;;;;;;6185753;23;20171;-96
2023/01/22 16:41:27;;;;;;;23.90;11.90;;;2.10;99.90;;;;;;6185725;23;20568;-91
2023/01/22 16:43:56;;;;;;;24.90;11.43;;;2.00;99.90;;;;;;6184644;23;20168;-93
2023/01/22 16:46:26;;;;;;;19.23;10.03;;;2.10;99.90;;;;;;6184584;23;20246;-92
2023/01/22 16:48:58;;;;;;;23.23;11.03;;;2.10;99.90;;;;;;6185565;23;20180;-94
2023/01/22 16:51:26;;;;;;;21.17;10.47;;;2.00;99.90;;;;;;6184837;23;20656;-94
2023/01/22 16:53:55;;;;;;;19.90;10.87;;;2.10;99.90;;;;;;6185798;23;20174;-92
2023/01/22 16:56:22;;;;;;;23.33;11.43;;;2.10;99.90;;;;;;6185747;23;20225;-93
2023/01/22 16:58:49;;;;;;;22.63;11.33;;;2.00;99.90;;;;;;6182845;23;20231;-94
2023/01/22 17:01:16;;;;;;;24.53;11.97;;;2.00;99.90;;;;;;6183234;23;20179;-95
2023/01/22 17:03:44;;;;;;;23.13;11.87;;;2.10;99.90;;;;;;6185524;23;20629;-94
2023/01/22 20:02:26;;;;;;;34.20;13.90;;;2.10;99.90;;;;;;6157190;23;20317;-96
2023/01/22 20:12:42;;;;;;;39.97;16.67;;;2.10;99.90;;;;;;6120776;23;20169;-88
2023/01/22 20:30:43;;;;;;;37.63;16.93;;;2.20;99.90;;;;;;6142084;23;20204;-95
2023/01/22 20:33:11;;;;;;;39.60;16.50;;;2.20;99.90;;;;;;6197617;23;20203;-94
2023/01/22 20:35:41;;;;;;;42.20;16.60;;;2.20;99.90;;;;;;6196234;23;20182;-96
2023/01/22 20:38:08;;;;;;;41.17;16.10;;;2.20;99.90;;;;;;6201335;23;20164;-96
2023/01/22 20:40:40;;;;;;;38.40;16.50;;;2.20;99.90;;;;;;6192530;23;20235;-94
2023/01/22 22:05:18;;;;;;;31.73;14.33;;;2.20;99.90;;;;;;6131571;23;20235;-95
